createdAt,value
2019-01-20T00:16:44.574Z,99932.80
2019-01-20T00:19:17.159Z,99950.70
2019-01-20T00:21:51.467Z,99945.63
2019-01-20T00:24:24.273Z,99958.23
2019-01-20T00:26:57.382Z,99955.34
2019-01-20T00:29:31.604Z,99960.03
2019-01-20T00:32:05.218Z,99963.44
2019-01-20T00:34:42.695Z,99964.12
2019-01-20T00:37:17.106Z,99965.08
2019-01-20T00:39:50.355Z,99973.10
2019-01-20T00:42:25.490Z,99978.09
2019-01-20T00:45:02.718Z,99982.61
2019-01-20T00:47:40.225Z,99980.59
2019-01-20T00:50:17.713Z,99968.43
2019-01-20T00:52:55.300Z,99968.43
2019-01-20T00:55:29.712Z,99968.42
2019-01-20T00:58:06.387Z,99966.12
2019-01-20T01:00:41.662Z,99962.09
2019-01-20T01:03:15.478Z,99960.53
2019-01-20T01:05:49.781Z,99962.31
2019-01-20T01:08:30.055Z,99964.05
2019-01-20T01:11:06.860Z,99967.25
2019-01-20T01:13:42.453Z,99962.23
2019-01-20T01:16:17.092Z,99960.50
2019-01-20T01:18:56.056Z,99958.86
2019-01-20T01:21:27.934Z,99950.00
2019-01-20T01:24:01.222Z,99951.94
2019-01-20T01:26:34.373Z,99950.16
2019-01-20T01:29:07.498Z,99946.38
2019-01-20T01:31:43.217Z,99942.59
2019-01-20T01:34:16.491Z,99932.91
2019-01-20T01:36:52.818Z,99930.47
2019-01-20T01:39:25.760Z,99930.47
2019-01-20T01:41:58.910Z,99932.29
2019-01-20T01:44:32.250Z,99926.97
2019-01-20T01:47:05.004Z,99937.27
2019-01-20T01:49:38.333Z,99945.30
2019-01-20T01:52:11.406Z,99942.78
2019-01-20T01:54:44.984Z,99937.84
2019-01-20T01:57:17.910Z,99931.45
2019-01-20T01:59:51.517Z,99932.73
2019-01-20T02:02:24.812Z,99931.61
2019-01-20T02:04:57.716Z,99934.87
2019-01-20T02:07:30.728Z,99940.87
2019-01-20T02:10:03.999Z,99943.92
2019-01-20T02:12:37.140Z,99939.19
2019-01-20T02:15:11.608Z,99933.59
2019-01-20T02:17:45.017Z,99935.28
2019-01-20T02:20:26.363Z,99945.03
2019-01-20T02:22:59.246Z,99944.59
2019-01-20T02:25:32.666Z,99946.27
2019-01-20T02:28:05.619Z,99948.75
2019-01-20T02:30:39.156Z,99952.54
2019-01-20T02:33:12.049Z,99943.52
2019-01-20T02:35:45.641Z,99945.70
2019-01-20T02:38:18.796Z,99947.81
2019-01-20T02:40:51.912Z,99946.53
2019-01-20T02:43:24.883Z,99941.47
2019-01-20T02:45:58.338Z,99943.64
2019-01-20T02:48:31.513Z,99934.75
2019-01-20T02:51:24.885Z,99928.36
2019-01-20T02:53:58.330Z,99931.78
2019-01-20T02:56:31.647Z,99928.78
2019-01-20T02:59:05.243Z,99922.02
2019-01-20T03:01:38.722Z,99918.35
2019-01-20T03:04:11.583Z,99922.75
2019-01-20T03:06:43.603Z,99912.13
2019-01-20T03:09:18.753Z,99913.41
2019-01-20T03:11:50.983Z,99906.94
2019-01-20T03:14:23.794Z,99904.02
2019-01-20T03:16:56.951Z,99906.12
2019-01-20T03:19:29.875Z,99894.30
2019-01-20T03:22:03.419Z,99891.30
2019-01-20T03:24:36.504Z,99890.81
2019-01-20T03:27:10.386Z,99883.16
2019-01-20T03:29:43.273Z,99879.36
2019-01-20T03:32:16.509Z,99880.27
2019-01-20T03:34:49.676Z,99874.75
2019-01-20T03:37:22.675Z,99873.44
2019-01-20T03:39:55.593Z,99861.91
2019-01-20T03:42:28.872Z,99855.69
2019-01-20T03:45:02.042Z,99862.11
2019-01-20T03:47:35.017Z,99865.53
2019-01-20T03:50:11.292Z,99852.35
2019-01-20T03:52:44.801Z,99857.88
2019-01-20T03:55:19.218Z,99848.08
2019-01-20T03:57:52.657Z,99849.02
2019-01-20T04:00:26.279Z,99850.70
2019-01-20T04:03:00.591Z,99844.73
2019-01-20T04:05:33.412Z,99845.16
2019-01-20T04:08:06.426Z,99848.56
2019-01-20T04:10:39.410Z,99844.73
2019-01-20T04:13:12.649Z,99855.06
2019-01-20T04:15:45.748Z,99838.86
2019-01-20T04:18:18.686Z,99840.98
2019-01-20T04:20:51.438Z,99845.77
2019-01-20T04:23:25.124Z,99850.42
2019-01-20T04:25:58.309Z,99854.81
2019-01-20T04:28:31.791Z,99861.56
2019-01-20T04:31:04.946Z,99857.25
2019-01-20T04:33:38.370Z,99857.70
2019-01-20T04:36:11.010Z,99860.20
2019-01-20T04:38:44.404Z,99849.96
2019-01-20T04:41:17.367Z,99861.56
2019-01-20T04:43:50.128Z,99855.30
2019-01-20T04:46:23.096Z,99856.05
2019-01-20T04:48:56.008Z,99858.11
2019-01-20T04:51:29.061Z,99856.91
2019-01-20T04:54:02.689Z,99858.19
2019-01-20T04:56:38.356Z,99862.47
2019-01-20T04:59:10.542Z,99863.37
2019-01-20T05:01:46.369Z,99861.98
2019-01-20T05:04:18.055Z,99864.45
2019-01-20T05:06:51.077Z,99868.84
2019-01-20T05:09:24.336Z,99866.30
2019-01-20T05:11:56.911Z,99864.19
2019-01-20T05:14:30.023Z,99861.56
2019-01-20T05:17:02.704Z,99866.26
2019-01-20T05:19:35.891Z,99864.19
2019-01-20T05:22:08.719Z,99866.78
2019-01-20T05:24:45.298Z,99866.83
2019-01-20T05:27:18.121Z,99872.80
2019-01-20T05:29:51.159Z,99878.34
2019-01-20T05:32:24.090Z,99882.17
2019-01-20T05:34:57.226Z,99880.08
2019-01-20T05:37:29.688Z,99880.11
2019-01-20T05:40:02.775Z,99876.28
2019-01-20T05:42:35.611Z,99883.91
2019-01-20T05:45:10.803Z,99883.03
2019-01-20T05:47:43.588Z,99880.48
2019-01-20T05:50:17.388Z,99882.21
2019-01-20T05:52:50.252Z,99886.03
2019-01-20T05:55:24.006Z,99885.59
2019-01-20T05:57:57.107Z,99895.80
2019-01-20T06:00:31.320Z,99890.66
2019-01-20T06:03:04.224Z,99885.52
2019-01-20T06:05:37.582Z,99888.47
2019-01-20T06:08:10.402Z,99876.54
2019-01-20T06:10:43.728Z,99877.81
2019-01-20T06:13:16.384Z,99883.33
2019-01-20T06:15:49.573Z,99881.53
2019-01-20T06:18:22.513Z,99883.62
2019-01-20T06:20:55.689Z,99888.70
2019-01-20T06:23:28.295Z,99894.20
2019-01-20T06:26:01.964Z,99891.66
2019-01-20T06:28:35.616Z,99885.65
2019-01-20T06:31:08.902Z,99890.75
2019-01-20T06:33:41.718Z,99894.95
2019-01-20T06:36:15.081Z,99894.50
2019-01-20T06:38:49.268Z,99893.97
2019-01-20T06:41:24.128Z,99902.12
2019-01-20T06:43:56.842Z,99901.63
2019-01-20T06:46:30.324Z,99897.76
2019-01-20T06:49:02.998Z,99899.37
2019-01-20T06:51:36.435Z,99904.47
2019-01-20T06:54:09.852Z,99901.47
2019-01-20T06:56:43.533Z,99904.81
2019-01-20T06:59:16.357Z,99909.50
2019-01-20T07:01:50.836Z,99900.94
2019-01-20T07:04:23.837Z,99904.35
2019-01-20T07:06:56.966Z,99907.73
2019-01-20T07:09:33.878Z,99907.24
2019-01-20T07:12:04.839Z,99905.09
2019-01-20T07:14:38.023Z,99903.29
2019-01-20T07:17:11.299Z,99908.73
2019-01-20T07:19:44.321Z,99908.23
2019-01-20T07:22:17.741Z,99918.41
2019-01-20T07:24:50.595Z,99921.49
2019-01-20T07:27:24.135Z,99929.11
2019-01-20T07:30:00.861Z,99926.48
2019-01-20T07:32:34.499Z,99926.80
2019-01-20T07:35:07.910Z,99920.34
2019-01-20T07:37:41.465Z,99925.08
2019-01-20T07:40:16.103Z,99925.08
2019-01-20T07:42:49.495Z,99936.61
2019-01-20T07:45:22.554Z,99937.44
2019-01-20T07:47:56.224Z,99937.09
2019-01-20T07:50:29.058Z,99937.97
2019-01-20T07:53:02.865Z,99943.78
2019-01-20T07:55:36.005Z,99931.87
2019-01-20T07:58:09.431Z,99937.19
2019-01-20T08:00:42.068Z,99937.19
2019-01-20T08:03:15.724Z,99941.88
2019-01-20T08:05:48.156Z,99945.75
2019-01-20T08:08:26.069Z,99944.89
2019-01-20T08:10:59.773Z,99944.44
2019-01-20T08:13:34.040Z,99946.41
2019-01-20T08:16:13.691Z,99942.55
2019-01-20T08:18:47.464Z,99950.09
2019-01-20T08:21:20.640Z,99953.75
2019-01-20T08:23:53.879Z,99937.88
2019-01-20T08:26:26.774Z,99937.30
2019-01-20T08:29:01.603Z,99938.08
2019-01-20T08:31:34.687Z,99930.73
2019-01-20T08:34:07.979Z,99937.45
2019-01-20T08:36:41.209Z,99950.48
2019-01-20T08:39:15.081Z,99950.48
2019-01-20T08:41:49.262Z,99953.86
2019-01-20T08:44:23.171Z,99961.89
2019-01-20T08:46:56.788Z,99961.89
2019-01-20T08:49:30.229Z,99968.66
2019-01-20T08:52:03.235Z,99968.66
2019-01-20T08:54:36.443Z,99968.33
2019-01-20T08:57:09.564Z,99979.66
2019-01-20T08:59:43.823Z,99978.27
2019-01-20T09:02:16.837Z,99973.11
2019-01-20T09:04:50.348Z,99975.50
2019-01-20T09:07:21.948Z,99973.97
2019-01-20T09:09:55.681Z,99974.47
2019-01-20T09:12:28.814Z,99979.50
2019-01-20T09:15:02.592Z,99980.86
2019-01-20T09:17:35.504Z,99989.80
2019-01-20T09:20:10.298Z,99982.58
2019-01-20T09:22:43.328Z,99981.67
2019-01-20T09:25:20.307Z,99982.50
2019-01-20T09:27:53.623Z,99986.41
2019-01-20T09:30:30.543Z,99989.45
2019-01-20T09:33:08.814Z,99983.41
2019-01-20T09:35:42.628Z,99983.33
2019-01-20T09:38:17.955Z,99985.45
2019-01-20T09:40:57.243Z,99989.82
2019-01-20T09:43:31.406Z,99983.73
2019-01-20T09:46:07.696Z,99982.91
2019-01-20T09:48:42.032Z,99986.16
2019-01-20T09:51:18.150Z,99985.45
2019-01-20T09:53:57.924Z,99989.36
2019-01-20T09:56:37.984Z,99983.52
2019-01-20T09:59:09.634Z,99982.36
2019-01-20T10:01:42.565Z,99978.03
2019-01-20T10:04:15.498Z,99975.97
2019-01-20T10:06:48.700Z,99989.07
2019-01-20T10:09:21.545Z,99976.83
2019-01-20T10:11:54.820Z,99977.21
2019-01-20T10:14:27.360Z,99978.56
2019-01-20T10:17:00.893Z,99973.04
2019-01-20T10:19:33.724Z,99971.23
2019-01-20T10:22:07.787Z,99977.29
2019-01-20T10:24:40.457Z,99975.89
2019-01-20T10:27:13.756Z,99980.63
2019-01-20T10:29:49.925Z,99978.61
2019-01-20T10:32:22.332Z,99969.15
2019-01-20T10:34:55.842Z,99968.85
2019-01-20T10:37:28.432Z,99971.10
2019-01-20T10:40:05.888Z,99966.30
2019-01-20T10:42:39.049Z,99968.73
2019-01-20T10:45:12.898Z,99971.88
2019-01-20T10:47:52.680Z,99978.37
2019-01-20T10:50:25.834Z,99976.16
2019-01-20T10:52:59.022Z,99978.27
2019-01-20T10:55:31.649Z,99978.27
2019-01-20T10:58:05.342Z,99977.37
2019-01-20T11:00:42.989Z,99974.44
2019-01-20T11:03:16.669Z,99970.31
2019-01-20T11:05:49.654Z,99967.53
2019-01-20T11:08:22.935Z,99965.09
2019-01-20T11:10:55.784Z,99964.34
2019-01-20T11:13:29.030Z,99961.83
2019-01-20T11:16:01.798Z,99962.13
2019-01-20T11:18:35.283Z,99964.94
2019-01-20T11:21:07.846Z,99977.14
2019-01-20T11:23:44.610Z,99971.63
2019-01-20T11:26:17.426Z,99977.55
2019-01-20T11:28:50.624Z,99977.55
2019-01-20T11:31:23.423Z,99977.55
2019-01-20T11:34:00.079Z,99981.80
2019-01-20T11:36:31.729Z,99984.13
2019-01-20T11:39:05.892Z,99976.69
2019-01-20T11:41:38.721Z,99977.25
2019-01-20T11:44:16.857Z,99977.29
2019-01-20T11:46:45.987Z,99976.02
2019-01-20T11:49:18.028Z,99980.44
2019-01-20T11:51:50.844Z,99975.26
2019-01-20T11:54:25.423Z,99971.36
2019-01-20T11:56:58.316Z,99973.50
2019-01-20T11:59:32.840Z,99967.91
2019-01-20T12:02:05.453Z,99966.48
2019-01-20T12:04:38.707Z,99969.34
2019-01-20T12:07:11.796Z,99967.53
2019-01-20T12:09:45.016Z,99965.42
2019-01-20T12:12:17.270Z,99964.34
2019-01-20T12:14:50.542Z,99963.70
2019-01-20T12:17:23.863Z,99971.95
2019-01-20T12:19:57.135Z,99965.69
2019-01-20T12:22:29.947Z,99963.66
2019-01-20T12:25:07.560Z,99965.84
2019-01-20T12:27:40.792Z,99958.92
2019-01-20T12:30:17.090Z,99965.30
2019-01-20T12:32:52.998Z,99967.55
2019-01-20T12:35:27.723Z,99965.06
2019-01-20T12:38:02.582Z,99966.80
2019-01-20T12:40:37.061Z,99970.05
2019-01-20T12:43:09.829Z,99969.56
2019-01-20T12:45:42.904Z,99979.90
2019-01-20T12:48:15.903Z,99973.59
2019-01-20T12:50:50.372Z,99973.11
2019-01-20T12:53:23.256Z,99973.48
2019-01-20T12:55:55.947Z,99978.95
2019-01-20T12:58:29.419Z,99978.95
2019-01-20T13:01:02.831Z,99976.11
2019-01-20T13:03:35.684Z,99979.94
2019-01-20T13:06:09.492Z,99983.06
2019-01-20T13:08:42.827Z,99985.13
2019-01-20T13:11:16.468Z,99983.09
2019-01-20T13:13:49.356Z,99984.08
2019-01-20T13:16:22.518Z,99977.17
2019-01-20T13:18:55.823Z,99982.80
2019-01-20T13:21:29.983Z,99981.86
2019-01-20T13:24:03.005Z,99984.30
2019-01-20T13:26:36.483Z,99983.97
2019-01-20T13:29:09.583Z,99986.28
2019-01-20T13:31:42.749Z,99986.28
2019-01-20T13:34:15.840Z,99999.80
2019-01-20T13:36:49.772Z,100003.37
2019-01-20T13:39:26.439Z,100011.38
2019-01-20T13:41:57.863Z,100011.38
2019-01-20T13:44:32.385Z,100013.55
2019-01-20T13:47:05.611Z,100011.38
2019-01-20T13:49:46.186Z,100018.15
2019-01-20T13:52:19.277Z,100018.15
2019-01-20T13:54:52.392Z,100026.52
2019-01-20T13:57:25.082Z,100028.73
2019-01-20T13:59:58.179Z,100027.58
2019-01-20T14:02:32.053Z,100028.81
2019-01-20T14:05:04.888Z,100024.65
2019-01-20T14:07:38.492Z,100023.45
2019-01-20T14:10:13.267Z,100025.40
2019-01-20T14:12:46.802Z,100022.80
2019-01-20T14:15:20.074Z,100027.91
2019-01-20T14:17:53.524Z,100027.50
2019-01-20T14:20:27.916Z,100026.30
2019-01-20T14:23:00.995Z,100026.97
2019-01-20T14:25:34.224Z,100026.39
2019-01-20T14:28:07.354Z,100022.56
2019-01-20T14:30:43.340Z,100022.69
2019-01-20T14:33:18.747Z,100022.69
2019-01-20T14:35:54.993Z,100031.17
2019-01-20T14:38:35.744Z,100027.75
2019-01-20T14:41:18.962Z,100036.20
2019-01-20T14:43:53.549Z,100036.20
2019-01-20T14:46:26.438Z,100028.57
2019-01-20T14:48:59.825Z,100033.35
2019-01-20T14:51:32.605Z,100035.95
2019-01-20T14:54:05.811Z,100037.47
2019-01-20T14:56:37.782Z,100040.94
2019-01-20T14:59:11.309Z,100040.19
2019-01-20T15:01:44.669Z,100047.77
2019-01-20T15:04:18.041Z,100047.77
2019-01-20T15:06:50.989Z,100049.95
2019-01-20T15:09:34.460Z,100045.55
2019-01-20T15:12:07.929Z,100048.03
2019-01-20T15:14:46.243Z,100049.09
2019-01-20T15:17:19.580Z,100054.16
2019-01-20T15:19:54.112Z,100057.91
2019-01-20T15:22:31.048Z,100049.92
2019-01-20T15:25:05.200Z,100058.41
2019-01-20T15:27:39.905Z,100065.70
2019-01-20T15:30:25.419Z,100064.42
2019-01-20T15:32:58.255Z,100070.44
2019-01-20T15:35:31.336Z,100076.86
2019-01-20T15:38:04.458Z,100076.86
2019-01-20T15:40:38.488Z,100075.09
2019-01-20T15:43:11.412Z,100070.91
2019-01-20T15:45:44.331Z,100074.52
2019-01-20T15:48:17.041Z,100074.52
2019-01-20T15:50:50.461Z,100079.31
2019-01-20T15:53:23.583Z,100082.81
2019-01-20T15:55:57.148Z,100080.93
2019-01-20T15:58:29.959Z,100077.97
2019-01-20T16:01:02.622Z,100080.81
2019-01-20T16:03:41.787Z,100087.32
2019-01-20T16:06:15.223Z,100083.34
2019-01-20T16:08:49.846Z,100083.34
2019-01-20T16:11:25.344Z,100074.86
2019-01-20T16:14:01.230Z,100083.23
2019-01-20T16:16:35.384Z,100083.23
2019-01-20T16:19:11.739Z,100080.80
2019-01-20T16:21:47.430Z,100095.22
2019-01-20T16:24:41.742Z,100106.01
2019-01-20T16:27:17.327Z,100105.52
2019-01-20T16:29:51.848Z,100106.09
2019-01-20T16:32:36.906Z,100106.09
2019-01-20T16:35:14.366Z,100109.43
2019-01-20T16:37:53.141Z,100120.70
2019-01-20T16:40:28.568Z,100124.61
2019-01-20T16:43:05.539Z,100124.61
2019-01-20T16:45:43.147Z,100127.72
2019-01-20T16:48:17.541Z,100134.97
2019-01-20T16:51:01.552Z,100137.00
2019-01-20T16:53:35.640Z,100133.89
2019-01-20T16:56:10.742Z,100140.72
2019-01-20T16:58:45.579Z,100130.12
2019-01-20T17:01:19.928Z,100135.58
2019-01-20T17:03:55.248Z,100135.58
2019-01-20T17:06:29.346Z,100136.93
2019-01-20T17:09:03.955Z,100138.66
2019-01-20T17:11:36.190Z,100138.20
2019-01-20T17:14:10.225Z,100137.76
2019-01-20T17:16:44.185Z,100127.72
2019-01-20T17:19:23.080Z,100150.02
2019-01-20T17:21:57.737Z,100150.02
2019-01-20T17:24:31.829Z,100152.89
2019-01-20T17:27:07.281Z,100161.91
2019-01-20T17:29:44.135Z,100166.94
2019-01-20T17:32:18.939Z,100169.52
2019-01-20T17:34:52.977Z,100176.25
2019-01-20T17:37:26.272Z,100179.30
2019-01-20T17:40:00.726Z,100179.30
2019-01-20T17:42:35.052Z,100173.36
2019-01-20T17:45:09.692Z,100174.67
2019-01-20T17:47:42.490Z,100186.13
2019-01-20T17:50:19.633Z,100187.44
2019-01-20T17:52:52.273Z,100187.44
2019-01-20T17:55:30.272Z,100189.06
2019-01-20T17:58:04.019Z,100194.62
2019-01-20T18:00:40.145Z,100194.23
2019-01-20T18:03:14.780Z,100195.10
2019-01-20T18:05:52.267Z,100195.52
2019-01-20T18:08:29.454Z,100204.49
2019-01-20T18:11:06.473Z,100207.94
2019-01-20T18:13:40.954Z,100206.77
2019-01-20T18:16:15.665Z,100205.94
2019-01-20T18:18:52.367Z,100207.28
2019-01-20T18:21:29.341Z,100213.70
2019-01-20T18:24:02.625Z,100216.63
2019-01-20T18:26:39.374Z,100220.05
2019-01-20T18:29:18.406Z,100216.25
2019-01-20T18:31:56.840Z,100219.25
2019-01-20T18:34:36.101Z,100218.33
2019-01-20T18:37:12.105Z,100226.95
2019-01-20T18:39:47.373Z,100230.30
2019-01-20T18:42:21.275Z,100234.58
2019-01-20T18:44:55.247Z,100231.09
2019-01-20T18:47:29.747Z,100226.40
2019-01-20T18:50:04.079Z,100229.53
2019-01-20T18:52:39.647Z,100232.75
2019-01-20T18:55:15.993Z,100229.33
2019-01-20T18:57:53.431Z,100230.68
2019-01-20T19:00:33.705Z,100236.65
2019-01-20T19:03:08.502Z,100240.41
2019-01-20T19:05:44.357Z,100237.41
2019-01-20T19:08:18.797Z,100244.56
2019-01-20T19:10:52.988Z,100245.94
2019-01-20T19:13:26.497Z,100247.28
2019-01-20T19:16:00.901Z,100246.32
2019-01-20T19:18:36.664Z,100252.73
2019-01-20T19:21:29.229Z,100252.73
2019-01-20T19:23:56.774Z,100254.39
2019-01-20T19:26:34.143Z,100258.70
2019-01-20T19:29:27.065Z,100266.88
2019-01-20T19:32:02.365Z,100270.77
2019-01-20T19:34:36.200Z,100270.77
2019-01-20T19:37:10.866Z,100272.08
2019-01-20T19:39:50.385Z,100267.93
2019-01-20T19:42:19.418Z,100273.00
2019-01-20T19:44:57.334Z,100280.09
2019-01-20T19:47:32.042Z,100276.74
2019-01-20T19:50:08.222Z,100277.63
2019-01-20T19:52:43.106Z,100274.63
2019-01-20T19:55:22.222Z,100274.60
2019-01-20T19:58:08.023Z,100282.27
2019-01-20T20:00:45.926Z,100282.27
2019-01-20T20:03:20.462Z,100286.51
2019-01-20T20:05:54.855Z,100289.98
2019-01-20T20:08:30.715Z,100288.30
2019-01-20T20:11:07.900Z,100291.61
2019-01-20T20:13:43.248Z,100291.61
2019-01-20T20:16:23.362Z,100293.75
2019-01-20T20:18:53.724Z,100294.17
2019-01-20T20:21:30.185Z,100299.69
2019-01-20T20:24:04.558Z,100292.45
2019-01-20T20:26:38.968Z,100297.55
2019-01-20T20:29:12.885Z,100298.00
2019-01-20T20:31:46.607Z,100296.27
2019-01-20T20:34:20.321Z,100291.20
2019-01-20T20:36:55.295Z,100293.18
2019-01-20T20:39:30.979Z,100293.24
2019-01-20T20:42:06.124Z,100294.59
2019-01-20T20:44:44.229Z,100298.86
2019-01-20T20:47:18.431Z,100300.14
2019-01-20T20:49:52.844Z,100307.80
2019-01-20T20:52:28.618Z,100306.91
2019-01-20T20:55:03.396Z,100314.19
2019-01-20T20:57:38.070Z,100315.13
2019-01-20T21:00:16.970Z,100311.27
2019-01-20T21:02:53.237Z,100316.35
2019-01-20T21:05:32.157Z,100315.13
2019-01-20T21:08:06.590Z,100320.62
2019-01-20T21:10:40.074Z,100327.04
2019-01-20T21:13:15.112Z,100320.18
2019-01-20T21:15:47.655Z,100329.06
2019-01-20T21:18:22.219Z,100329.50
2019-01-20T21:23:54.165Z,100332.11
2019-01-20T21:26:28.209Z,100337.67
2019-01-20T21:29:03.578Z,100339.72
2019-01-20T21:31:38.552Z,100340.58
2019-01-20T21:34:14.613Z,100338.44
2019-01-20T21:36:49.302Z,100338.88
2019-01-20T21:39:24.567Z,100340.61
2019-01-20T21:42:02.705Z,100348.66
2019-01-20T21:44:36.871Z,100354.63
2019-01-20T21:47:15.908Z,100357.14
2019-01-20T21:49:51.321Z,100349.91
2019-01-20T21:52:28.839Z,100357.14
2019-01-20T21:55:05.585Z,100357.53
2019-01-20T21:57:33.943Z,100359.25
2019-01-20T22:00:02.325Z,100360.98
2019-01-20T22:02:32.320Z,100372.41
2019-01-20T22:05:00.776Z,100372.50
2019-01-20T22:07:33.530Z,100375.97
2019-01-20T22:10:07.511Z,100372.53
2019-01-20T22:12:40.353Z,100377.09
2019-01-20T22:15:14.061Z,100377.45
2019-01-20T22:17:46.601Z,100377.45
2019-01-20T22:20:20.707Z,100382.15
2019-01-20T22:22:53.739Z,100382.12
2019-01-20T22:25:26.891Z,100381.73
2019-01-20T22:27:59.275Z,100388.12
2019-01-20T22:30:32.467Z,100384.38
2019-01-20T22:33:06.384Z,100385.27
2019-01-20T22:35:41.331Z,100390.76
2019-01-20T22:38:16.113Z,100393.28
2019-01-20T22:40:53.163Z,100386.09
2019-01-20T22:43:27.230Z,100389.16
2019-01-20T22:46:00.333Z,100387.48
2019-01-20T22:48:36.010Z,100389.56
2019-01-20T22:51:14.642Z,100385.35
2019-01-20T22:53:50.164Z,100387.88
2019-01-20T22:56:24.613Z,100390.04
2019-01-20T22:58:57.287Z,100385.38
2019-01-20T23:01:30.453Z,100384.94
2019-01-20T23:04:02.804Z,100381.99
2019-01-20T23:06:36.008Z,100388.41
2019-01-20T23:09:09.696Z,100384.13
2019-01-20T23:11:42.994Z,100383.63
2019-01-20T23:14:19.216Z,100377.69
2019-01-20T23:16:53.553Z,100374.72
2019-01-20T23:19:26.451Z,100376.45
2019-01-20T23:21:58.420Z,100366.23
2019-01-20T23:24:31.200Z,100363.65
2019-01-20T23:27:04.569Z,100373.42
2019-01-20T23:29:37.625Z,100369.17
2019-01-20T23:32:11.084Z,100376.80
2019-01-20T23:34:44.723Z,100378.52
2019-01-20T23:37:17.690Z,100376.03
2019-01-20T23:39:50.399Z,100382.35
2019-01-20T23:42:23.513Z,100378.11
2019-01-20T23:44:56.295Z,100378.05
2019-01-20T23:47:29.450Z,100373.05
2019-01-20T23:50:02.233Z,100374.36
2019-01-20T23:52:35.631Z,100380.36
2019-01-20T23:55:08.782Z,100377.39
2019-01-20T23:57:40.806Z,100378.70
